Time;durP1;ratioP1;P1;durP2;ratioP2;P2;SDS_P1;SDS_P2;PMS_P1;PMS_P2;Temp;Humidity;BMP_temperature;BMP_pressure;BME280_temperature;BME280_humidity;BME280_pressure;Samples;Min_cycle;Max_cycle;Signal;HPM_P1;HPM_P2
2023/08/04 00:00:14;;;;;;;;;;;19.70;46.50;;;15.46;80.75;95023.59;4984264;28;19917;-47
2023/08/04 00:02:40;;;;;;;;;;;19.60;46.60;;;15.41;79.92;95029.88;4975405;28;19914;-48
2023/08/04 00:05:07;;;;;;;;;;;19.50;46.70;;;15.37;78.78;95022.75;4971682;28;19929;-48
2023/08/04 00:07:34;;;;;;;;;;;19.50;46.80;;;15.37;77.97;95023.56;4987798;28;19917;-52
2023/08/04 00:10:01;;;;;;;;;;;19.50;47.00;;;15.38;76.30;95006.34;4982923;28;19916;-47
2023/08/04 00:12:27;;;;;;;;;;;19.50;47.00;;;15.39;78.03;95018.69;4987924;28;19962;-49
2023/08/04 00:14:52;;;;;;;;;;;19.50;47.10;;;15.42;76.75;95025.31;4989602;28;19909;-52
2023/08/04 00:17:18;;;;;;;;;;;19.50;47.20;;;15.46;75.86;95026.28;4990287;28;20379;-48
2023/08/04 00:19:44;;;;;;;;;;;19.50;47.20;;;15.48;76.69;95030.25;4972177;28;20373;-49
2023/08/04 00:22:10;;;;;;;;;;;19.50;47.20;;;15.50;75.54;95036.06;4988827;28;19913;-51
2023/08/04 00:24:35;;;;;;;;;;;19.50;47.30;;;15.54;75.08;95035.47;4992211;28;19909;-50
2023/08/04 00:27:02;;;;;;;;;;;19.50;47.30;;;15.55;74.82;95029.00;4991707;28;19913;-50
2023/08/04 00:29:29;;;;;;;;;;;19.50;47.40;;;15.57;75.07;95038.31;4992786;28;19920;-49
2023/08/04 00:31:55;;;;;;;;;;;19.50;47.40;;;15.56;75.64;95033.28;4991746;28;19909;-49
2023/08/04 00:34:21;;;;;;;;;;;19.50;47.40;;;15.54;77.58;95036.25;4991491;28;19909;-50
2023/08/04 00:36:47;;;;;;;;;;;19.50;47.40;;;15.52;78.04;95035.78;5007299;28;20387;-48
2023/08/04 00:39:17;;;;;;;;;;;19.50;47.50;;;15.50;78.15;95043.34;4981916;28;19910;-49
2023/08/04 00:41:43;;;;;;;;;;;19.50;47.60;;;15.44;78.24;95041.88;4974834;28;20387;-49
2023/08/04 00:44:10;;;;;;;;;;;19.50;47.60;;;15.40;79.21;95040.94;4982735;28;20012;-47
2023/08/04 00:46:36;;;;;;;;;;;19.50;47.60;;;15.39;79.71;95053.56;5004743;28;19963;-52
2023/08/04 00:49:06;;;;;;;;;;;19.40;47.70;;;15.36;80.10;95034.59;4972650;28;20008;-50
2023/08/04 00:51:33;;;;;;;;;;;19.40;48.40;;;15.30;80.55;95030.47;4985400;28;19917;-50
2023/08/04 00:54:00;;;;;;;;;;;19.40;47.80;;;15.31;80.21;95018.63;4991914;28;19917;-52
2023/08/04 00:56:28;;;;;;;;;;;19.40;47.90;;;15.28;80.82;95020.03;4990963;28;20004;-48
2023/08/04 00:58:55;;;;;;;;;;;19.40;48.00;;;15.25;81.24;95017.97;4992098;28;19917;-51
2023/08/04 01:01:20;;;;;;;;;;;19.30;48.00;;;15.21;80.35;95025.84;4991562;28;20366;-48
2023/08/04 01:03:47;;;;;;;;;;;19.30;48.10;;;15.20;79.78;95023.47;4980890;28;19918;-50
2023/08/04 01:06:43;;;;;;;;;;;19.30;48.20;;;15.16;81.31;95017.13;4987762;28;19917;-47
2023/08/04 01:09:33;;;;;;;;;;;19.30;48.30;;;15.13;81.25;95010.47;4989629;28;20008;-49
2023/08/04 01:12:13;;;;;;;;;;;19.30;48.40;;;15.14;81.65;95009.38;5006740;28;19941;-48
2023/08/04 01:14:44;;;;;;;;;;;19.30;48.50;;;15.16;80.08;95003.69;4991091;28;19917;-52
2023/08/04 01:17:27;;;;;;;;;;;19.30;48.60;;;15.17;80.41;95005.31;4991861;28;19944;-50
2023/08/04 01:19:53;;;;;;;;;;;19.30;48.60;;;15.20;79.92;95000.13;4991859;28;19909;-52
2023/08/04 01:22:21;;;;;;;;;;;19.30;48.60;;;15.22;79.89;95000.56;4976367;28;19913;-48
2023/08/04 01:24:47;;;;;;;;;;;19.30;48.70;;;15.23;78.81;94996.00;4990026;28;19955;-46
2023/08/04 01:27:17;;;;;;;;;;;19.30;48.60;;;15.25;78.02;94999.19;4984375;28;19916;-47
2023/08/04 01:29:45;;;;;;;;;;;19.30;48.70;;;15.27;77.85;94999.66;4976381;28;20415;-50
2023/08/04 01:32:11;;;;;;;;;;;19.30;48.70;;;15.28;78.41;95001.25;4975500;28;19960;-49
2023/08/04 01:34:41;;;;;;;;;;;19.30;48.70;;;15.30;78.73;95000.94;4985984;28;20372;-49
2023/08/04 01:37:08;;;;;;;;;;;19.30;48.80;;;15.31;78.36;94997.16;5003523;28;20004;-48
2023/08/04 01:39:37;;;;;;;;;;;19.30;48.80;;;15.29;81.47;94997.44;4999825;28;19988;-49
2023/08/04 01:42:03;;;;;;;;;;;19.30;48.80;;;15.23;81.06;95001.38;4982230;28;19942;-48
2023/08/04 01:44:29;;;;;;;;;;;19.30;48.90;;;15.21;81.39;95000.91;4988962;28;19915;-48
2023/08/04 01:46:55;;;;;;;;;;;19.30;48.90;;;15.20;82.51;94996.63;4989777;28;19910;-50
2023/08/04 01:49:20;;;;;;;;;;;19.30;49.00;;;15.20;82.81;94996.63;4986320;28;20373;-46
2023/08/04 01:51:46;;;;;;;;;;;19.30;49.00;;;15.15;82.75;94996.75;4989019;28;19909;-46
2023/08/04 01:54:12;;;;;;;;;;;19.30;49.10;;;15.12;82.53;94994.69;4986098;28;19910;-46
2023/08/04 01:56:37;;;;;;;;;;;19.20;49.10;;;15.07;82.83;94998.28;5004026;28;19963;-50
2023/08/04 01:59:03;;;;;;;;;;;19.20;49.20;;;15.00;83.11;94996.03;4986402;28;20005;-48
2023/08/04 02:01:29;;;;;;;;;;;19.20;49.30;;;14.94;83.79;94994.56;4979609;28;20288;-47
2023/08/04 02:03:55;;;;;;;;;;;19.10;49.30;;;14.87;84.14;94996.91;4986761;28;19909;-49
2023/08/04 02:06:21;;;;;;;;;;;19.00;49.40;;;14.81;86.31;94998.91;4981447;28;20010;-46
2023/08/04 02:08:47;;;;;;;;;;;19.00;49.50;;;14.78;86.73;95004.09;4990906;28;19932;-47
2023/08/04 02:11:12;;;;;;;;;;;18.90;49.60;;;14.74;87.86;95003.91;4992279;28;19931;-51
2023/08/04 02:13:38;;;;;;;;;;;18.90;49.70;;;14.67;88.65;95014.28;4984073;28;19913;-50
2023/08/04 02:16:04;;;;;;;;;;;18.80;49.80;;;14.60;89.74;95010.41;4990423;28;19913;-53
2023/08/04 02:18:29;;;;;;;;;;;18.70;50.60;;;14.53;91.49;95013.53;4983877;28;19909;-45
2023/08/04 02:20:55;;;;;;;;;;;18.60;50.10;;;14.45;91.88;95017.69;4984943;28;19913;-48
2023/08/04 02:23:21;;;;;;;;;;;18.60;50.30;;;14.40;91.65;95015.13;4985279;28;20321;-49
2023/08/04 02:25:46;;;;;;;;;;;18.60;50.40;;;14.34;92.55;95008.28;4987577;28;19916;-49
2023/08/04 02:28:12;;;;;;;;;;;18.50;50.50;;;14.28;92.97;95014.84;4990751;28;19913;-48
2023/08/04 02:30:38;;;;;;;;;;;18.40;50.70;;;14.23;94.03;95010.41;4981080;28;20419;-49
2023/08/04 02:33:04;;;;;;;;;;;18.40;50.80;;;14.20;95.32;95010.22;4992828;28;19914;-48
2023/08/04 02:35:29;;;;;;;;;;;18.30;50.90;;;14.17;94.75;95008.94;4992316;28;19915;-50
2023/08/04 02:37:55;;;;;;;;;;;18.30;51.00;;;14.15;95.02;95010.31;4982691;28;19916;-46
2023/08/04 02:40:21;;;;;;;;;;;18.30;51.20;;;14.11;95.70;95004.78;4991563;28;19913;-52
2023/08/04 02:42:47;;;;;;;;;;;18.20;51.90;;;14.09;95.89;95010.41;4980585;28;20000;-48
2023/08/04 02:45:13;;;;;;;;;;;18.20;51.40;;;14.08;95.60;95013.41;4993031;28;20359;-49
2023/08/04 02:47:38;;;;;;;;;;;18.20;51.50;;;14.04;96.41;95015.09;4981066;28;19909;-46
2023/08/04 02:50:06;;;;;;;;;;;18.20;51.70;;;14.04;96.18;95028.47;4983473;28;20005;-49
2023/08/04 02:52:33;;;;;;;;;;;18.10;51.70;;;14.00;96.90;95024.81;4979626;28;19914;-48
2023/08/04 02:54:59;;;;;;;;;;;18.10;51.80;;;13.97;97.31;95017.38;4983249;28;19916;-48
2023/08/04 02:57:30;;;;;;;;;;;18.10;51.90;;;13.96;97.15;95015.81;4986463;28;19909;-46
2023/08/04 02:59:58;;;;;;;;;;;18.10;52.00;;;13.93;97.42;95019.88;4985328;28;19909;-45
2023/08/04 03:02:25;;;;;;;;;;;18.00;52.00;;;13.89;98.03;95011.66;4979147;28;19963;-46
2023/08/04 03:04:51;;;;;;;;;;;18.00;52.10;;;13.89;98.42;95013.53;4981844;28;19922;-48
2023/08/04 03:07:17;;;;;;;;;;;18.00;52.20;;;13.86;98.71;95001.53;4987171;28;19910;-46
2023/08/04 03:09:43;;;;;;;;;;;18.00;52.30;;;13.85;98.66;94999.13;4974631;28;19967;-52
2023/08/04 03:12:09;;;;;;;;;;;18.00;52.40;;;13.82;99.13;95000.56;4986426;28;19964;-47
2023/08/04 03:14:35;;;;;;;;;;;18.00;52.50;;;13.79;100.00;95006.50;4984451;28;19910;-47
2023/08/04 03:17:00;;;;;;;;;;;18.00;52.60;;;13.78;100.00;94996.06;4986681;28;19931;-46
2023/08/04 03:19:26;;;;;;;;;;;17.90;52.60;;;13.82;100.00;94999.72;4984939;28;19913;-49
2023/08/04 03:21:52;;;;;;;;;;;17.90;52.80;;;13.82;100.00;95010.44;4984265;28;19917;-49
2023/08/04 03:24:18;;;;;;;;;;;17.90;52.80;;;13.80;100.00;95010.75;4984216;28;20007;-46
2023/08/04 03:26:44;;;;;;;;;;;17.90;52.90;;;13.79;100.00;95006.50;4982731;28;19914;-50
2023/08/04 03:29:10;;;;;;;;;;;17.90;53.00;;;13.79;100.00;95003.03;4984938;28;19936;-46
2023/08/04 03:31:36;;;;;;;;;;;17.90;53.00;;;13.79;99.52;95009.19;4979970;28;19909;-46
2023/08/04 03:34:01;;;;;;;;;;;17.90;53.10;;;13.76;99.17;95015.13;4980343;28;20058;-46
2023/08/04 03:36:27;;;;;;;;;;;17.90;53.20;;;13.73;99.49;95029.09;4986735;28;19937;-48
2023/08/04 03:38:53;;;;;;;;;;;17.90;53.30;;;13.74;99.00;95028.00;4983427;28;19913;-46
2023/08/04 03:41:19;;;;;;;;;;;17.90;53.30;;;13.76;98.75;95028.50;4979619;28;20295;-46
2023/08/04 03:43:44;;;;;;;;;;;17.90;54.00;;;13.75;99.46;95028.78;4983343;28;19910;-48
2023/08/04 03:46:10;;;;;;;;;;;17.90;53.40;;;13.73;100.00;95033.66;4990758;28;19979;-49
2023/08/04 03:48:36;;;;;;;;;;;17.90;53.40;;;13.73;100.00;95037.13;4990896;28;19916;-49
2023/08/04 03:51:01;;;;;;;;;;;17.90;53.50;;;13.72;100.00;95034.75;4980598;28;20016;-47
2023/08/04 03:53:27;;;;;;;;;;;17.90;53.50;;;13.72;100.00;95038.22;4978805;28;20365;-46
2023/08/04 03:55:53;;;;;;;;;;;17.90;53.60;;;13.71;100.00;95044.66;4984257;28;19914;-46
2023/08/04 03:58:19;;;;;;;;;;;17.90;53.70;;;13.72;100.00;95043.56;4976957;28;20335;-49
2023/08/04 04:00:45;;;;;;;;;;;17.90;53.80;;;13.73;100.00;95057.75;4984128;28;19910;-47
2023/08/04 04:03:10;;;;;;;;;;;17.80;53.90;;;13.73;100.00;95057.75;4984439;28;19916;-49
2023/08/04 04:05:38;;;;;;;;;;;17.80;54.00;;;13.74;100.00;95057.44;4981165;28;19917;-46
2023/08/04 04:08:04;;;;;;;;;;;17.90;54.10;;;13.76;100.00;95071.34;4978824;28;19913;-51
2023/08/04 04:10:30;;;;;;;;;;;17.90;54.20;;;13.78;100.00;95071.81;4983622;28;19916;-46
2023/08/04 04:12:55;;;;;;;;;;;17.90;54.30;;;13.82;100.00;95066.66;4985548;28;20372;-47
2023/08/04 04:15:21;;;;;;;;;;;17.90;54.40;;;13.84;100.00;95051.09;4981496;28;19913;-46
2023/08/04 04:17:47;;;;;;;;;;;17.90;54.40;;;13.79;100.00;95029.81;4979214;28;20331;-45
2023/08/04 04:20:13;;;;;;;;;;;17.90;55.10;;;13.71;100.00;95023.25;4983817;28;19910;-51
2023/08/04 04:22:39;;;;;;;;;;;17.90;54.60;;;13.61;100.00;95031.47;4978365;28;20380;-46
2023/08/04 04:25:05;;;;;;;;;;;17.80;54.60;;;13.69;100.00;95048.72;4983657;28;19967;-45
2023/08/04 04:27:30;;;;;;;;;;;17.70;54.70;;;13.64;100.00;95055.75;4984564;28;19909;-45
2023/08/04 04:29:56;;;;;;;;;;;17.70;54.80;;;13.59;100.00;95057.72;4981372;28;19916;-47
2023/08/04 04:32:22;;;;;;;;;;;17.70;54.90;;;13.58;100.00;95053.47;4977719;28;19964;-45
2023/08/04 04:34:49;;;;;;;;;;;17.60;55.00;;;13.56;100.00;95055.66;4983371;28;19910;-48
2023/08/04 04:37:15;;;;;;;;;;;17.60;55.10;;;13.53;100.00;95058.91;4985351;28;19909;-45
2023/08/04 04:39:40;;;;;;;;;;;17.60;55.10;;;13.52;100.00;95055.44;4984324;28;19964;-46
2023/08/04 04:42:06;;;;;;;;;;;17.60;55.20;;;13.52;100.00;95050.09;4978522;28;19914;-46
2023/08/04 04:44:32;;;;;;;;;;;17.50;55.30;;;13.52;100.00;95055.44;4990174;28;19910;-47
2023/08/04 04:46:58;;;;;;;;;;;17.60;55.40;;;13.53;100.00;95051.66;4990907;28;19916;-47
2023/08/04 04:49:24;;;;;;;;;;;17.60;55.50;;;13.53;100.00;95057.03;4983496;28;19917;-46
2023/08/04 04:51:49;;;;;;;;;;;17.60;55.50;;;13.51;100.00;95059.22;4984021;28;19946;-46
2023/08/04 04:54:15;;;;;;;;;;;17.60;55.50;;;13.49;100.00;95053.34;4980409;28;19963;-45
2023/08/04 04:56:41;;;;;;;;;;;17.60;55.60;;;13.50;100.00;95051.47;4978613;28;19913;-45
2023/08/04 04:59:06;;;;;;;;;;;17.60;55.60;;;13.50;100.00;95049.59;4980944;28;20007;-44
2023/08/04 05:01:32;;;;;;;;;;;17.70;55.70;;;13.51;100.00;95059.22;4978556;28;19918;-45
2023/08/04 05:03:58;;;;;;;;;;;17.70;55.80;;;13.53;100.00;95062.38;4981637;28;19910;-50
2023/08/04 05:06:24;;;;;;;;;;;17.70;55.80;;;13.55;100.00;95070.91;4987852;28;20004;-45
2023/08/04 05:08:49;;;;;;;;;;;17.80;55.90;;;13.61;100.00;95067.06;4983445;28;19910;-45
2023/08/04 05:11:15;;;;;;;;;;;17.80;55.90;;;13.69;100.00;95067.44;4993565;28;19913;-45
2023/08/04 05:13:44;;;;;;;;;;;18.00;56.00;;;13.80;100.00;95066.19;4984369;28;19913;-45
2023/08/04 05:16:09;;;;;;;;;;;18.10;56.10;;;13.93;100.00;95070.75;4989488;28;19916;-45
2023/08/04 05:18:35;;;;;;;;;;;18.30;56.10;;;14.13;100.00;95064.16;4991751;28;19909;-44
2023/08/04 05:21:01;;;;;;;;;;;18.50;56.20;;;14.48;100.00;95067.22;4986383;28;19953;-47
2023/08/04 05:23:27;;;;;;;;;;;18.80;56.10;;;14.86;100.00;95074.97;4986505;28;19964;-44
2023/08/04 05:25:52;;;;;;;;;;;19.10;56.20;;;15.20;100.00;95074.44;4988774;28;20369;-45
2023/08/04 05:28:22;;;;;;;;;;;19.40;56.10;;;15.47;100.00;95070.78;4992175;28;19910;-45
2023/08/04 05:30:53;;;;;;;;;;;19.70;56.10;;;15.57;100.00;95072.44;4982330;28;19909;-45
2023/08/04 05:33:18;;;;;;;;;;;19.80;55.90;;;15.59;100.00;95076.38;4987130;28;19909;-46
2023/08/04 05:35:46;;;;;;;;;;;19.90;55.90;;;15.62;100.00;95075.00;4979671;28;19980;-46
2023/08/04 05:38:13;;;;;;;;;;;20.00;55.80;;;15.61;100.00;95068.03;4975616;28;20364;-46
2023/08/04 05:40:42;;;;;;;;;;;20.10;55.70;;;15.61;100.00;95071.50;4981859;28;19910;-46
2023/08/04 05:43:07;;;;;;;;;;;20.20;55.70;;;15.61;100.00;95074.19;4983785;28;20364;-45
2023/08/04 05:45:37;;;;;;;;;;;20.20;55.60;;;15.63;100.00;95080.03;4990114;28;20430;-46
2023/08/04 05:48:05;;;;;;;;;;;20.20;55.50;;;15.65;100.00;95079.75;4984057;28;19949;-46
2023/08/04 05:50:31;;;;;;;;;;;20.20;55.50;;;15.64;100.00;95081.63;4990699;28;19909;-46
2023/08/04 05:52:57;;;;;;;;;;;20.20;55.50;;;15.63;100.00;95088.09;4983753;28;19918;-45
2023/08/04 05:55:24;;;;;;;;;;;20.30;55.50;;;15.68;100.00;95088.00;4988352;28;19910;-45
2023/08/04 05:57:52;;;;;;;;;;;20.30;55.50;;;15.66;100.00;95092.06;4984710;28;20332;-46
2023/08/04 06:00:19;;;;;;;;;;;20.40;55.50;;;15.66;100.00;95084.78;4977157;28;20376;-49
2023/08/04 06:02:45;;;;;;;;;;;20.40;55.50;;;15.65;100.00;95087.78;4983469;28;20448;-49
2023/08/04 06:05:12;;;;;;;;;;;20.40;55.40;;;15.66;100.00;95082.09;4982636;28;19928;-47
2023/08/04 06:07:39;;;;;;;;;;;20.40;55.30;;;15.72;100.00;95088.97;4985659;28;19955;-46
2023/08/04 06:10:06;;;;;;;;;;;20.50;55.30;;;15.73;98.75;95087.88;4988995;28;20400;-46
2023/08/04 06:12:32;;;;;;;;;;;20.60;55.30;;;15.73;98.28;95090.56;4974622;28;19949;-46
2023/08/04 06:14:58;;;;;;;;;;;20.60;55.20;;;15.79;98.85;95095.78;4989274;28;19916;-52
2023/08/04 06:17:24;;;;;;;;;;;20.60;55.10;;;15.80;99.89;95097.38;4994199;28;20264;-46
2023/08/04 06:19:50;;;;;;;;;;;20.60;55.10;;;15.83;99.86;95096.75;4990011;28;19910;-46
2023/08/04 06:22:15;;;;;;;;;;;20.60;55.10;;;15.84;99.07;95104.50;4989710;28;19913;-45
2023/08/04 06:24:42;;;;;;;;;;;20.60;55.10;;;15.90;100.00;95111.31;4981030;28;19913;-47
2023/08/04 06:27:08;;;;;;;;;;;20.60;55.10;;;15.89;100.00;95106.28;4993188;28;20364;-45
2023/08/04 06:29:35;;;;;;;;;;;20.60;55.20;;;15.87;100.00;95097.72;4993770;28;19944;-47
2023/08/04 06:32:01;;;;;;;;;;;20.50;55.20;;;15.89;100.00;95098.22;4993544;28;19914;-46
2023/08/04 06:34:27;;;;;;;;;;;20.50;55.20;;;15.87;100.00;95100.41;4979726;28;20317;-45
2023/08/04 06:36:53;;;;;;;;;;;20.50;55.30;;;15.87;100.00;95101.19;4994095;28;19916;-45
2023/08/04 06:39:19;;;;;;;;;;;20.50;55.30;;;15.82;100.00;95103.22;4988890;28;19910;-45
2023/08/04 06:41:45;;;;;;;;;;;20.40;55.30;;;15.78;100.00;95105.72;4984917;28;19956;-48
2023/08/04 06:44:13;;;;;;;;;;;20.40;55.30;;;15.75;100.00;95109.03;4994006;28;19964;-46
2023/08/04 06:46:39;;;;;;;;;;;20.40;55.40;;;15.66;100.00;95111.63;4993622;28;19916;-45
2023/08/04 06:49:05;;;;;;;;;;;20.40;55.40;;;15.67;100.00;95117.84;4993647;28;20384;-45
2023/08/04 06:51:30;;;;;;;;;;;20.40;55.40;;;15.64;100.00;95118.44;4992560;28;19944;-47
2023/08/04 06:53:56;;;;;;;;;;;20.30;55.40;;;15.64;100.00;95118.44;4981556;28;20314;-46
2023/08/04 06:56:22;;;;;;;;;;;20.40;55.50;;;15.66;100.00;95127.75;4977677;28;20280;-50
2023/08/04 06:58:48;;;;;;;;;;;20.40;55.60;;;15.71;100.00;95129.56;4976036;28;20357;-45
2023/08/04 07:01:14;;;;;;;;;;;20.50;55.60;;;15.72;100.00;95131.13;4976579;28;20008;-48
2023/08/04 07:03:40;;;;;;;;;;;20.60;55.50;;;15.76;100.00;95132.09;4972438;28;19923;-48
2023/08/04 07:06:06;;;;;;;;;;;20.60;55.50;;;15.81;100.00;95136.56;4972856;28;19921;-47
2023/08/04 07:08:32;;;;;;;;;;;20.70;55.50;;;15.87;100.00;95130.72;4973037;28;19913;-47
2023/08/04 07:10:57;;;;;;;;;;;20.80;55.40;;;15.96;100.00;95128.88;4973715;28;19912;-46
2023/08/04 07:13:23;;;;;;;;;;;20.90;55.40;;;15.99;100.00;95126.69;4972208;28;19916;-46
2023/08/04 07:15:57;;;;;;;;;;;21.00;55.30;;;16.08;100.00;95124.84;4972514;28;19918;-47
2023/08/04 07:18:23;;;;;;;;;;;21.00;55.30;;;16.16;100.00;95126.75;4972461;28;19909;-46
2023/08/04 07:20:49;;;;;;;;;;;21.10;55.30;;;16.26;100.00;95121.09;4976351;28;20349;-49
2023/08/04 07:23:15;;;;;;;;;;;21.10;55.40;;;16.24;99.58;95117.16;4978447;28;20459;-47
2023/08/04 07:25:40;;;;;;;;;;;21.20;55.30;;;16.34;100.00;95117.63;4986700;28;19988;-50
2023/08/04 07:28:06;;;;;;;;;;;21.30;55.30;;;16.32;97.03;95108.31;4986600;28;20422;-52
2023/08/04 07:30:37;;;;;;;;;;;21.40;55.20;;;16.39;97.13;95119.41;4979542;28;19953;-53
2023/08/04 07:33:06;;;;;;;;;;;21.40;55.10;;;16.45;95.92;95120.81;4991319;28;19994;-48
2023/08/04 07:35:33;;;;;;;;;;;21.50;55.00;;;16.58;97.41;95111.84;4978484;28;20060;-49
2023/08/04 07:37:59;;;;;;;;;;;21.50;54.90;;;16.77;96.64;95113.50;4981244;28;19915;-55
2023/08/04 07:40:25;;;;;;;;;;;21.60;55.00;;;16.82;93.86;95113.31;4990241;28;19909;-52
2023/08/04 07:42:50;;;;;;;;;;;21.70;55.00;;;17.07;92.06;95111.75;4980289;28;19913;-53
2023/08/04 07:45:16;;;;;;;;;;;22.00;54.90;;;17.38;90.00;95114.28;5004683;28;19936;-48
2023/08/04 07:47:42;;;;;;;;;;;22.30;54.60;;;17.52;90.72;95111.41;4981271;28;19910;-50
2023/08/04 07:50:08;;;;;;;;;;;22.50;54.40;;;17.57;86.50;95116.63;4992220;28;19909;-53
2023/08/04 07:52:34;;;;;;;;;;;22.60;54.40;;;17.72;86.79;95124.19;4991616;28;20300;-51
2023/08/04 07:54:59;;;;;;;;;;;22.70;54.20;;;17.89;85.39;95114.50;4991313;28;19916;-52
2023/08/04 07:57:25;;;;;;;;;;;22.80;54.10;;;17.94;86.39;95115.13;4974869;28;19968;-48
2023/08/04 07:59:51;;;;;;;;;;;23.00;53.90;;;18.16;87.23;95105.22;4991304;28;19917;-51
2023/08/04 08:02:17;;;;;;;;;;;23.20;53.60;;;18.52;85.93;95106.59;4979054;28;19953;-53
2023/08/04 08:04:42;;;;;;;;;;;23.50;53.50;;;18.90;81.03;95095.78;4978939;28;19941;-50
2023/08/04 08:07:08;;;;;;;;;;;24.00;53.20;;;19.21;78.70;95100.78;4992564;28;19909;-49
2023/08/04 08:09:34;;;;;;;;;;;24.50;52.70;;;19.72;75.71;95101.41;4987600;28;19913;-56
2023/08/04 08:11:59;;;;;;;;;;;25.10;52.40;;;19.93;75.17;95109.47;4979891;28;19910;-51
2023/08/04 08:14:25;;;;;;;;;;;25.40;52.10;;;20.01;74.19;95102.38;4986368;28;19913;-54
2023/08/04 08:16:51;;;;;;;;;;;25.50;51.90;;;20.18;73.65;95106.75;4980020;28;19913;-53
2023/08/04 08:19:17;;;;;;;;;;;25.70;51.60;;;20.19;68.17;95109.16;4978483;28;20304;-51
2023/08/04 08:21:43;;;;;;;;;;;25.80;51.10;;;20.35;68.73;95114.69;4977013;28;20345;-53
2023/08/04 08:24:09;;;;;;;;;;;26.00;50.70;;;20.51;67.81;95123.72;4985673;28;20292;-55
2023/08/04 08:26:36;;;;;;;;;;;26.20;50.40;;;20.56;67.25;95125.41;4978375;28;19936;-50
2023/08/04 08:29:02;;;;;;;;;;;26.40;50.10;;;20.76;66.87;95119.06;4991795;28;19913;-50
2023/08/04 08:31:28;;;;;;;;;;;26.60;50.00;;;20.92;66.65;95123.78;4984992;28;20004;-55
2023/08/04 08:33:54;;;;;;;;;;;26.80;49.60;;;21.17;64.30;95127.22;4983943;28;20047;-50
2023/08/04 08:36:19;;;;;;;;;;;27.20;49.30;;;21.47;61.97;95131.22;4972608;28;19992;-49
2023/08/04 08:38:45;;;;;;;;;;;27.60;48.90;;;21.65;65.18;95126.25;4984642;28;19910;-51
2023/08/04 08:41:13;;;;;;;;;;;28.00;48.60;;;21.88;61.17;95131.94;4984330;28;19956;-50
2023/08/04 08:43:40;;;;;;;;;;;28.40;48.40;;;22.22;61.11;95128.91;4986154;28;19916;-49
2023/08/04 08:46:07;;;;;;;;;;;28.80;48.10;;;22.27;62.12;95131.38;4983102;28;19909;-49
2023/08/04 08:48:39;;;;;;;;;;;29.00;47.90;;;22.30;62.23;95128.75;4985339;28;20346;-49
2023/08/04 08:51:12;;;;;;;;;;;29.00;47.70;;;22.42;60.08;95140.66;4976099;28;20372;-52
2023/08/04 08:53:39;;;;;;;;;;;29.20;47.50;;;22.36;60.95;95132.00;4976972;28;20280;-50
2023/08/04 08:56:09;;;;;;;;;;;29.10;47.30;;;22.42;58.24;95127.88;4971013;28;20349;-50
2023/08/04 08:58:37;;;;;;;;;;;29.10;47.20;;;22.47;58.88;95122.19;4979290;28;19914;-50
2023/08/04 09:01:03;;;;;;;;;;;29.20;46.80;;;22.18;59.54;95126.91;4982320;28;20099;-52
2023/08/04 09:03:30;;;;;;;;;;;29.20;47.10;;;22.16;61.66;95131.13;4984407;28;19916;-49
2023/08/04 09:05:55;;;;;;;;;;;29.40;46.10;;;22.55;59.79;95125.84;4997360;28;19921;-50
2023/08/04 09:08:21;;;;;;;;;;;29.50;46.20;;;22.63;58.91;95117.53;4974968;28;19963;-54
2023/08/04 09:10:47;;;;;;;;;;;29.60;45.90;;;22.65;57.69;95117.16;4994507;28;19920;-50
2023/08/04 09:13:14;;;;;;;;;;;29.70;45.70;;;22.80;58.85;95115.56;4989797;28;19956;-54
2023/08/04 09:15:52;;;;;;;;;;;29.80;45.50;;;22.90;58.95;95108.78;4982374;28;19940;-49
2023/08/04 09:18:44;;;;;;;;;;;29.90;45.50;;;22.62;57.51;95109.72;4983796;28;19910;-52
2023/08/04 09:21:13;;;;;;;;;;;29.70;45.40;;;22.71;56.66;95117.69;4996318;28;20342;-50
2023/08/04 09:23:48;;;;;;;;;;;29.50;45.40;;;22.69;54.71;95115.34;4980623;28;19909;-52
2023/08/04 09:26:14;;;;;;;;;;;29.50;45.50;;;22.59;58.57;95115.84;4977194;28;19909;-53
2023/08/04 09:28:40;;;;;;;;;;;29.40;45.30;;;22.37;58.59;95126.19;4980573;28;19909;-50
2023/08/04 09:31:12;;;;;;;;;;;29.20;45.10;;;22.36;57.23;95127.34;4983877;28;19960;-48
2023/08/04 09:33:41;;;;;;;;;;;29.10;45.10;;;22.41;59.38;95129.03;4978646;28;20304;-49
2023/08/04 09:36:11;;;;;;;;;;;29.10;45.00;;;22.47;56.65;95127.63;4979044;28;19910;-50
2023/08/04 09:38:39;;;;;;;;;;;29.30;45.00;;;22.55;56.96;95134.78;4977917;28;20755;-51
2023/08/04 09:41:06;;;;;;;;;;;29.30;44.80;;;22.62;58.60;95136.84;4978662;28;19913;-54
2023/08/04 09:43:32;;;;;;;;;;;29.30;44.70;;;22.90;56.38;95136.72;4981968;28;20260;-52
2023/08/04 09:46:06;;;;;;;;;;;29.40;44.80;;;23.12;56.72;95129.88;4986285;28;19964;-55
2023/08/04 09:48:33;;;;;;;;;;;29.60;44.60;;;23.03;58.46;95124.66;4989959;28;19921;-48
2023/08/04 09:51:08;;;;;;;;;;;29.80;44.30;;;23.11;56.93;95132.94;4974163;28;19916;-49
2023/08/04 09:53:47;;;;;;;;;;;29.90;44.10;;;23.20;56.08;95126.16;4986792;28;19917;-52
2023/08/04 09:56:17;;;;;;;;;;;30.20;43.90;;;23.42;56.47;95116.53;5007973;28;19931;-50
2023/08/04 09:58:45;;;;;;;;;;;30.40;43.70;;;23.58;54.50;95111.00;4981135;28;19971;-50
2023/08/04 10:01:13;;;;;;;;;;;30.60;43.60;;;23.92;59.80;95114.78;4994205;28;19921;-52
2023/08/04 10:03:54;;;;;;;;;;;30.90;43.30;;;24.23;54.12;95113.75;5007097;28;19935;-51
2023/08/04 10:06:20;;;;;;;;;;;31.30;43.10;;;24.53;50.85;95112.31;4993958;28;19991;-51
2023/08/04 10:08:50;;;;;;;;;;;31.70;43.10;;;24.70;51.25;95112.59;4990489;28;19987;-49
2023/08/04 10:11:16;;;;;;;;;;;31.80;42.70;;;24.95;53.21;95119.56;4992554;28;19916;-50
2023/08/04 10:13:46;;;;;;;;;;;32.20;42.50;;;25.14;47.79;95117.50;4994364;28;20015;-49
2023/08/04 10:16:17;;;;;;;;;;;32.50;42.30;;;25.33;49.18;95110.34;4991629;28;20360;-49
2023/08/04 10:18:56;;;;;;;;;;;32.70;41.90;;;25.78;50.64;95112.03;4993092;28;19916;-49
2023/08/04 10:21:36;;;;;;;;;;;33.20;41.40;;;26.25;51.25;95120.72;4989001;28;19914;-50
2023/08/04 10:24:04;;;;;;;;;;;33.90;41.30;;;26.58;47.69;95114.38;4987043;28;19909;-51
2023/08/04 10:26:43;;;;;;;;;;;34.40;40.70;;;26.50;45.56;95110.81;4992927;28;19944;-49
2023/08/04 10:29:10;;;;;;;;;;;34.40;40.40;;;26.39;45.26;95120.06;4981016;28;19909;-51
2023/08/04 10:31:42;;;;;;;;;;;34.20;40.20;;;26.15;48.23;95119.44;4990868;28;19997;-51
2023/08/04 10:34:28;;;;;;;;;;;34.00;40.10;;;26.14;46.11;95119.84;4988800;28;19913;-49
2023/08/04 10:37:00;;;;;;;;;;;33.80;40.10;;;26.12;47.19;95119.44;4973986;28;20265;-52
2023/08/04 10:39:36;;;;;;;;;;;33.90;39.90;;;26.78;46.91;95123.09;4976976;28;20274;-49
2023/08/04 10:42:26;;;;;;;;;;;34.30;39.60;;;27.44;42.58;95117.66;4974058;28;19999;-49
2023/08/04 10:45:06;;;;;;;;;;;34.90;39.20;;;27.77;43.98;95124.03;4992655;28;20299;-49
2023/08/04 10:47:41;;;;;;;;;;;35.40;39.20;;;28.16;42.46;95115.94;4980689;28;19914;-54
2023/08/04 10:50:08;;;;;;;;;;;35.80;38.10;;;28.53;41.10;95106.59;4993724;28;19909;-50
2023/08/04 10:52:36;;;;;;;;;;;36.30;37.90;;;28.63;39.16;95115.97;4992149;28;20384;-55
2023/08/04 10:55:06;;;;;;;;;;;36.70;37.40;;;28.75;40.78;95121.84;4993516;28;20020;-53
2023/08/04 10:57:34;;;;;;;;;;;36.90;36.80;;;28.90;37.89;95124.56;4982486;28;20351;-52
2023/08/04 11:00:02;;;;;;;;;;;37.10;36.60;;;28.57;37.84;95132.81;4989308;28;20250;-52
2023/08/04 11:02:29;;;;;;;;;;;36.90;36.40;;;28.50;40.33;95129.28;4991707;28;19976;-54
2023/08/04 11:04:55;;;;;;;;;;;36.60;36.40;;;27.62;39.45;95126.72;4977416;28;19948;-52
2023/08/04 11:07:23;;;;;;;;;;;36.30;36.20;;;27.83;41.64;95117.06;4983237;28;19913;-50
2023/08/04 11:09:51;;;;;;;;;;;36.40;36.10;;;28.33;39.69;95115.19;4992034;28;19910;-52
2023/08/04 11:12:18;;;;;;;;;;;36.70;35.70;;;28.74;38.98;95117.53;4992953;28;19996;-52
2023/08/04 11:14:44;;;;;;;;;;;37.20;35.40;;;28.88;39.07;95113.22;4992245;28;20314;-52